N79KW KRNM-MZB

Flight info

Callsign N79KW
Flight time N/A
Altitude VFR
Route HOLD
Aircraft SR22/L-VGD/C

Departure

Time 2026-05-06 02:21
Airport Ramona Airport (KRNM)

Arrival

Time N/A
Airport MZB
Time Latitude Longitude Altitude Speed Heading
2026-05-06 02:20 33.03486 -116.97495 3431 ft 126 kts 234°
2026-05-06 02:21 33.02916 -116.98296 3737 ft 126 kts 228°
2026-05-06 02:21 33.02253 -116.99028 3861 ft 142 kts 230°
2026-05-06 02:21 33.01687 -116.99795 4015 ft 146 kts 229°
2026-05-06 02:21 33.00887 -117.00501 4399 ft 139 kts 218°
2026-05-06 02:22 33.00157 -117.01176 4770 ft 131 kts 222°
2026-05-06 02:22 32.99447 -117.01861 5081 ft 130 kts 223°
2026-05-06 02:22 32.98750 -117.02544 5358 ft 131 kts 223°
2026-05-06 02:22 32.98041 -117.03234 5628 ft 132 kts 223°
2026-05-06 02:23 32.97333 -117.03928 5892 ft 133 kts 223°
2026-05-06 02:23 32.96582 -117.04663 5996 ft 147 kts 223°
2026-05-06 02:23 32.95748 -117.05486 6005 ft 162 kts 223°
2026-05-06 02:23 32.94849 -117.06365 5997 ft 170 kts 223°
2026-05-06 02:24 32.93923 -117.07267 5988 ft 172 kts 223°
2026-05-06 02:24 32.92990 -117.08175 5984 ft 173 kts 223°
2026-05-06 02:24 32.92050 -117.09093 5980 ft 174 kts 222°
2026-05-06 02:24 32.91099 -117.10020 5981 ft 179 kts 223°
2026-05-06 02:25 32.90124 -117.10970 5980 ft 182 kts 223°
2026-05-06 02:25 32.89142 -117.11928 5977 ft 183 kts 222°
2026-05-06 02:25 32.88145 -117.12898 5978 ft 184 kts 222°
2026-05-06 02:25 32.87147 -117.13868 5978 ft 184 kts 222°
2026-05-06 02:26 32.86157 -117.14834 5980 ft 185 kts 222°
2026-05-06 02:26 32.85160 -117.15802 5981 ft 185 kts 223°
2026-05-06 02:26 32.84162 -117.16774 5983 ft 185 kts 223°
2026-05-06 02:26 32.83163 -117.17745 5983 ft 185 kts 223°
2026-05-06 02:27 32.82160 -117.18721 5981 ft 186 kts 223°
2026-05-06 02:27 32.81148 -117.19703 5978 ft 186 kts 223°
2026-05-06 02:27 32.80137 -117.20686 5977 ft 187 kts 223°
2026-05-06 02:27 32.79157 -117.21635 5965 ft 171 kts 223°
2026-05-06 02:28 32.78274 -117.22517 5964 ft 160 kts 232°
2026-05-06 02:28 32.77949 -117.23663 5971 ft 147 kts 278°
2026-05-06 02:28 32.78175 -117.24844 5976 ft 146 kts 292°
2026-05-06 02:28 32.78568 -117.25954 5945 ft 141 kts 290°
2026-05-06 02:29 32.78834 -117.27022 5979 ft 129 kts 288°
2026-05-06 02:29 32.79279 -117.27829 5928 ft 114 kts 331°
2026-05-06 02:29 32.80035 -117.27871 5948 ft 110 kts 20°
2026-05-06 02:29 32.80490 -117.27175 5931 ft 115 kts 79°
2026-05-06 02:30 32.80199 -117.26326 5971 ft 110 kts 135°
2026-05-06 02:30 32.79618 -117.25690 6005 ft 117 kts 132°
2026-05-06 02:30 32.79098 -117.24895 5995 ft 127 kts 119°
2026-05-06 02:30 32.78554 -117.24015 5991 ft 135 kts 128°
2026-05-06 02:31 32.78182 -117.22969 5988 ft 138 kts 96°
2026-05-06 02:31 32.78229 -117.21845 5981 ft 137 kts 62°
2026-05-06 02:31 32.78881 -117.21079 5983 ft 132 kts 18°
2026-05-06 02:31 32.79774 -117.21105 5981 ft 130 kts 333°
2026-05-06 02:32 32.80359 -117.21892 5981 ft 133 kts 294°
2026-05-06 02:32 32.80644 -117.22958 5981 ft 136 kts 289°
2026-05-06 02:32 32.80905 -117.24054 5976 ft 137 kts 289°
2026-05-06 02:32 32.81166 -117.25143 5974 ft 135 kts 289°
2026-05-06 02:33 32.81422 -117.26207 5973 ft 134 kts 289°
2026-05-06 02:33 32.81549 -117.26935 5967 ft 136 kts 273°
2026-05-06 02:34 32.79030 -117.27702 5975 ft 148 kts 124°
2026-05-06 02:34 32.78716 -117.26570 5980 ft 143 kts 94°
2026-05-06 02:34 32.78597 -117.25391 5977 ft 144 kts 94°
2026-05-06 02:34 32.78450 -117.24204 5977 ft 145 kts 96°
2026-05-06 02:35 32.78280 -117.23029 5977 ft 145 kts 97°
2026-05-06 02:35 32.78232 -117.21853 5974 ft 142 kts 75°
2026-05-06 02:35 32.78473 -117.20683 5867 ft 149 kts 71°
2026-05-06 02:35 32.78749 -117.19479 5727 ft 153 kts 71°
2026-05-06 02:36 32.79041 -117.18248 5581 ft 155 kts 71°
2026-05-06 02:36 32.79342 -117.16994 5433 ft 157 kts 71°
2026-05-06 02:36 32.79644 -117.15736 5285 ft 158 kts 71°
2026-05-06 02:36 32.79947 -117.14475 5138 ft 159 kts 71°
2026-05-06 02:37 32.80248 -117.13217 5004 ft 159 kts 71°
2026-05-06 02:37 32.80545 -117.11964 4975 ft 152 kts 71°
2026-05-06 02:37 32.80823 -117.10784 4972 ft 145 kts 71°
2026-05-06 02:37 32.81089 -117.09619 4978 ft 145 kts 71°
2026-05-06 02:38 32.81362 -117.08431 4979 ft 146 kts 71°
2026-05-06 02:38 32.81636 -117.07257 4979 ft 147 kts 71°
2026-05-06 02:38 32.81911 -117.06088 4979 ft 147 kts 71°
2026-05-06 02:38 32.82191 -117.04902 4980 ft 148 kts 71°
2026-05-06 02:39 32.82474 -117.03716 4978 ft 148 kts 71°
2026-05-06 02:39 32.82762 -117.02515 4790 ft 151 kts 71°
2026-05-06 02:39 32.83052 -117.01335 4586 ft 146 kts 71°
2026-05-06 02:39 32.83328 -117.00202 4375 ft 137 kts 72°
2026-05-06 02:40 32.83311 -116.99124 4192 ft 125 kts 103°
2026-05-06 02:40 32.83065 -116.98147 4184 ft 125 kts 105°
2026-05-06 02:40 32.82781 -116.97134 4191 ft 131 kts 105°
2026-05-06 02:40 32.82485 -116.96081 4192 ft 136 kts 106°
2026-05-06 02:41 32.82183 -116.94996 4192 ft 140 kts 106°
2026-05-06 02:41 32.81874 -116.93871 4188 ft 144 kts 106°
2026-05-06 02:41 32.81562 -116.92722 4183 ft 147 kts 106°
2026-05-06 02:41 32.81245 -116.91558 4168 ft 150 kts 106°
2026-05-06 02:42 32.80925 -116.90371 4165 ft 151 kts 106°
2026-05-06 02:42 32.80603 -116.89169 4167 ft 152 kts 106°
2026-05-06 02:42 32.80284 -116.87965 4167 ft 152 kts 105°
2026-05-06 02:42 32.80016 -116.86732 4156 ft 152 kts 89°
2026-05-06 02:43 32.80364 -116.85615 4161 ft 144 kts 43°
2026-05-06 02:43 32.81227 -116.85123 4155 ft 136 kts 360°
2026-05-06 02:43 32.82085 -116.85507 4154 ft 133 kts 315°
2026-05-06 02:43 32.82469 -116.86489 4164 ft 134 kts 284°
2026-05-06 02:44 32.82630 -116.87598 4167 ft 135 kts 281°
2026-05-06 02:44 32.82778 -116.88719 4169 ft 136 kts 281°
2026-05-06 02:44 32.82926 -116.89838 4166 ft 137 kts 281°
2026-05-06 02:44 32.83078 -116.90967 4163 ft 137 kts 281°
2026-05-06 02:45 32.83227 -116.92078 4166 ft 137 kts 281°
2026-05-06 02:45 32.83235 -116.93209 4162 ft 140 kts 254°
2026-05-06 02:45 32.82574 -116.94068 4168 ft 146 kts 209°
2026-05-06 02:45 32.81558 -116.94192 4173 ft 150 kts 174°
2026-05-06 02:46 32.80506 -116.93968 4166 ft 152 kts 171°
2026-05-06 02:46 32.79451 -116.93717 4166 ft 152 kts 171°
2026-05-06 02:46 32.78419 -116.93469 4167 ft 146 kts 171°
2026-05-06 02:46 32.77446 -116.93224 4160 ft 135 kts 171°
2026-05-06 02:47 32.76563 -116.92997 4162 ft 125 kts 170°
2026-05-06 02:47 32.75732 -116.92921 4158 ft 112 kts 200°
2026-05-06 02:47 32.75155 -116.93409 4122 ft 100 kts 242°
2026-05-06 02:47 32.74862 -116.94164 3938 ft 96 kts 265°
2026-05-06 02:48 32.74799 -116.94939 3808 ft 100 kts 272°
2026-05-06 02:48 32.74860 -116.95817 3689 ft 114 kts 283°
2026-05-06 02:48 32.75057 -116.96769 3527 ft 123 kts 289°
2026-05-06 02:48 32.75340 -116.97747 3346 ft 125 kts 292°
2026-05-06 02:49 32.75653 -116.98671 3150 ft 113 kts 295°
2026-05-06 02:49 32.75943 -116.99461 2970 ft 98 kts 295°
2026-05-06 02:49 32.76214 -117.00184 2912 ft 96 kts 295°
2026-05-06 02:49 32.76493 -117.00914 2761 ft 95 kts 296°
2026-05-06 02:50 32.76766 -117.01621 2621 ft 94 kts 296°
2026-05-06 02:50 32.77029 -117.02331 2481 ft 93 kts 294°
2026-05-06 02:50 32.77293 -117.03040 2340 ft 92 kts 295°
2026-05-06 02:50 32.77560 -117.03726 2211 ft 90 kts 295°
2026-05-06 02:51 32.77825 -117.04398 2082 ft 89 kts 295°
2026-05-06 02:51 32.78086 -117.05057 1964 ft 89 kts 294°
2026-05-06 02:51 32.78358 -117.05742 1849 ft 93 kts 294°
2026-05-06 02:51 32.78635 -117.06443 1728 ft 96 kts 295°
2026-05-06 02:52 32.78924 -117.07172 1598 ft 98 kts 295°
2026-05-06 02:52 32.79217 -117.07910 1456 ft 97 kts 295°
2026-05-06 02:52 32.79504 -117.08633 1322 ft 97 kts 295°
2026-05-06 02:52 32.79789 -117.09351 1198 ft 96 kts 295°
2026-05-06 02:53 32.80076 -117.10077 1062 ft 96 kts 295°
2026-05-06 02:53 32.80360 -117.10794 928 ft 94 kts 295°
2026-05-06 02:53 32.80643 -117.11509 809 ft 95 kts 295°
2026-05-06 02:53 32.80918 -117.12203 675 ft 91 kts 295°
2026-05-06 02:54 32.81178 -117.12856 547 ft 81 kts 295°
2026-05-06 02:54 32.81408 -117.13432 435 ft 74 kts 295°
2026-05-06 02:54 32.81590 -117.13895 419 ft 34 kts 295°
2026-05-06 02:54 32.81593 -117.14069 417 ft 21 kts 248°
2026-05-06 02:55 32.81584 -117.14092 416 ft 0 kts 237°